Airfield :
LOGIN :

Register | Disclaimer

   EN    FR    IT 

 










Legend :    VFR   Marginal VFR   IFR   Intensive IFR   Very Intensive IFR
Visi :
Ceiling :
>= 8 km
>= 3000ft
5 to 8 km
1000 to 3000 ft
1500m to 5 km
500 to 1000 ft
800 to 1500m
200 to 500 ft
< 800m
< 200 ft
Symbols :   Thunderstorms  Fog  Heavy snow  Heavy precipitations  Wind > 20 kt
SIGMETs :     Misc.  Thunderstorms  Icing  Turbulence  Mountain Waves  Volcanic Ashes






- Airport Elevation : 468 ft
- IATA code : GRO


LEGE - Girona Costa Brava

CURRENT METAR :
  • 041130Z 16010KT 120V210 CAVOK 32/13 Q1016

EXPIRED METARs :
  • 041100Z 17005KT CAVOK 33/13 Q1016
  • 041030Z 09003KT CAVOK 31/12 Q1016
  • 041000Z 12004KT CAVOK 32/12 Q1016
  • 040930Z 15002KT CAVOK 31/13 Q1016
  • 040900Z 05004KT 350V120 CAVOK 29/12 Q1016

TAF TAF LEGE
Valid from the 04 at 12:00 until the 05 at 12:00 UTC


041100Z 0412/0512 18010KT CAVOK TX36/0413Z TN22/0505Z
BECMG 0418/0420 VRB04KT
TEMPO 0506/0509 03010KT



MET'MAP, your aeronautical weather chart ! - Copyright ORBIFLY December 2007 - Disclaimer

ORBIFLY MET'MAP TEAM :

Programming & Development : Alexandra Zaïnal
Original concept : Baudouin d'Aumeries
Technical & hardware support : Manuel Goepfert
Assistance : Marc-Olivier Méhu




SOURCES & CREDITS :

   NOAA